createdAt,value
2018-05-18T00:00:54.173Z,14.10
2018-05-18T00:03:21.672Z,13.83
2018-05-18T00:05:49.157Z,16.80
2018-05-18T00:08:16.633Z,19.57
2018-05-18T00:10:44.132Z,18.67
2018-05-18T00:13:12.389Z,15.70
2018-05-18T00:15:39.870Z,18.70
2018-05-18T00:18:08.126Z,17.07
2018-05-18T00:20:35.626Z,18.20
2018-05-18T00:23:03.126Z,19.80
2018-05-18T00:25:30.621Z,18.10
2018-05-18T00:27:58.885Z,19.60
2018-05-18T00:30:26.371Z,19.57
2018-05-18T00:32:53.862Z,21.63
2018-05-18T00:35:21.849Z,20.53
2018-05-18T00:37:49.342Z,19.33
2018-05-18T00:40:17.609Z,17.73
2018-05-18T00:42:45.107Z,24.73
2018-05-18T00:45:12.608Z,20.53
2018-05-18T00:47:40.097Z,19.33
2018-05-18T00:50:08.373Z,21.07
2018-05-18T00:52:36.630Z,18.83
2018-05-18T00:58:07.269Z,26.20
2018-05-18T01:00:34.765Z,22.93
2018-05-18T01:03:03.021Z,20.17
2018-05-18T01:05:30.515Z,24.80
2018-05-18T01:07:58.025Z,26.43
2018-05-18T01:10:25.511Z,19.80
2018-05-18T01:12:53.771Z,23.03
2018-05-18T01:15:21.282Z,21.53
2018-05-18T01:17:48.769Z,20.50
2018-05-18T01:20:16.257Z,21.50
2018-05-18T01:22:44.509Z,18.83
2018-05-18T01:25:12.009Z,25.43
2018-05-18T01:27:39.494Z,25.00
2018-05-18T01:30:06.999Z,20.57
2018-05-18T01:32:34.794Z,25.70
2018-05-18T01:35:02.296Z,19.27
2018-05-18T01:37:29.809Z,22.60
2018-05-18T01:39:58.056Z,23.10
2018-05-18T01:42:25.538Z,21.50
2018-05-18T01:44:53.789Z,23.57
2018-05-18T01:47:21.277Z,21.93
2018-05-18T01:49:48.766Z,25.10
2018-05-18T01:52:16.257Z,23.47
2018-05-18T01:54:43.773Z,22.90
2018-05-18T01:57:11.275Z,21.47
2018-05-18T01:59:38.765Z,20.67
2018-05-18T02:02:07.029Z,24.20
2018-05-18T02:04:35.285Z,18.70
2018-05-18T02:07:02.780Z,21.80
2018-05-18T02:09:30.264Z,17.37
2018-05-18T02:11:57.766Z,24.70
2018-05-18T02:14:25.249Z,22.03
2018-05-18T02:16:53.513Z,22.17
2018-05-18T02:19:21.776Z,21.83
2018-05-18T02:21:49.269Z,20.67
2018-05-18T02:24:16.761Z,21.63
2018-05-18T02:26:44.267Z,18.50
2018-05-18T02:29:12.521Z,19.57
2018-05-18T02:31:40.025Z,23.63
2018-05-18T02:34:07.527Z,21.43
2018-05-18T02:36:35.021Z,20.97
2018-05-18T02:39:02.498Z,21.87
2018-05-18T02:41:29.995Z,20.80
2018-05-18T02:43:57.469Z,17.40
2018-05-18T02:46:24.964Z,19.27
2018-05-18T02:48:52.440Z,18.73
2018-05-18T02:51:19.951Z,22.87
2018-05-18T02:53:48.208Z,21.77
2018-05-18T02:56:15.693Z,17.63
2018-05-18T02:58:43.172Z,22.67
2018-05-18T03:01:11.424Z,18.47
2018-05-18T03:03:39.689Z,19.73
2018-05-18T03:06:07.196Z,20.60
2018-05-18T03:08:34.685Z,24.97
2018-05-18T03:11:02.192Z,18.97
2018-05-18T03:13:30.441Z,24.30
2018-05-18T03:15:57.945Z,20.63
2018-05-18T03:18:25.441Z,19.57
2018-05-18T03:20:52.986Z,19.93
2018-05-18T03:23:21.202Z,20.80
2018-05-18T03:25:48.707Z,23.30
2018-05-18T03:28:16.189Z,21.73
2018-05-18T03:30:43.677Z,20.20
2018-05-18T03:33:11.175Z,19.77
2018-05-18T03:35:38.669Z,17.93
2018-05-18T03:38:06.153Z,21.90
2018-05-18T03:40:33.644Z,20.27
2018-05-18T03:43:01.134Z,19.53
2018-05-18T03:45:28.629Z,19.77
2018-05-18T03:47:56.105Z,20.97
2018-05-18T03:50:24.361Z,18.23
2018-05-18T03:52:51.848Z,22.00
2018-05-18T03:55:19.342Z,22.00
2018-05-18T03:57:46.826Z,20.87
2018-05-18T04:00:14.313Z,20.03
2018-05-18T04:02:54.289Z,19.90
2018-05-18T04:05:33.757Z,21.07
2018-05-18T04:08:13.306Z,19.93
2018-05-18T04:10:40.805Z,20.53
2018-05-18T04:13:09.063Z,19.03
2018-05-18T04:15:36.562Z,24.17
2018-05-18T04:18:04.056Z,21.03
2018-05-18T04:20:31.553Z,18.57
2018-05-18T04:23:00.456Z,20.43
2018-05-18T04:25:27.980Z,21.53
2018-05-18T04:27:55.468Z,19.00
2018-05-18T04:30:23.769Z,20.20
2018-05-18T04:32:51.985Z,19.90
2018-05-18T04:35:19.485Z,23.60
2018-05-18T04:37:46.974Z,21.80
2018-05-18T04:40:14.475Z,21.70
2018-05-18T04:42:42.741Z,23.13
2018-05-18T04:45:10.285Z,25.43
2018-05-18T04:47:37.763Z,22.00
2018-05-18T04:50:05.250Z,22.60
2018-05-18T04:52:32.788Z,21.57
2018-05-18T04:55:01.041Z,23.97
2018-05-18T04:57:28.539Z,23.97
2018-05-18T04:59:56.780Z,21.73
2018-05-18T05:02:24.275Z,22.77
2018-05-18T05:04:52.529Z,24.87
2018-05-18T05:07:20.026Z,22.43
2018-05-18T05:09:47.519Z,20.33
2018-05-18T05:12:15.027Z,22.03
2018-05-18T05:14:43.280Z,19.20
2018-05-18T05:17:10.774Z,23.10
2018-05-18T05:19:38.269Z,22.63
2018-05-18T05:22:05.758Z,22.30
2018-05-18T05:24:33.254Z,19.23
2018-05-18T05:27:00.742Z,20.53
2018-05-18T05:29:29.011Z,19.97
2018-05-18T05:31:56.496Z,21.77
2018-05-18T05:34:24.108Z,18.27
2018-05-18T05:36:51.593Z,23.60
2018-05-18T05:39:19.099Z,18.90
2018-05-18T05:41:47.348Z,19.23
2018-05-18T05:44:14.929Z,17.10
2018-05-18T05:46:43.190Z,17.73
2018-05-18T05:49:10.768Z,18.03
2018-05-18T05:51:39.026Z,17.10
2018-05-18T05:54:06.509Z,17.27
2018-05-18T05:56:34.763Z,19.40
2018-05-18T05:59:02.249Z,17.57
2018-05-18T06:01:30.648Z,15.50
2018-05-18T06:03:58.139Z,20.03
2018-05-18T06:06:25.644Z,18.43
2018-05-18T06:08:53.896Z,15.10
2018-05-18T06:11:21.434Z,17.13
2018-05-18T06:13:49.473Z,18.67
2018-05-18T06:16:16.967Z,20.03
2018-05-18T06:18:44.477Z,21.07
2018-05-18T06:21:11.961Z,19.60
2018-05-18T06:23:39.445Z,19.00
2018-05-18T06:26:06.928Z,18.43
2018-05-18T06:28:35.213Z,19.70
2018-05-18T06:31:02.728Z,18.93
2018-05-18T06:33:30.995Z,15.53
2018-05-18T06:35:58.486Z,17.80
2018-05-18T06:38:25.969Z,18.57
2018-05-18T06:40:53.476Z,22.70
2018-05-18T06:43:20.965Z,18.73
2018-05-18T06:45:48.463Z,18.97
2018-05-18T06:48:15.958Z,16.97
2018-05-18T06:50:43.459Z,18.20
2018-05-18T06:53:11.726Z,19.70
2018-05-18T06:55:39.996Z,18.47
2018-05-18T06:58:07.486Z,18.30
2018-05-18T07:00:34.997Z,18.23
2018-05-18T07:03:02.492Z,18.73
2018-05-18T07:05:30.801Z,18.10
2018-05-18T07:07:58.339Z,20.23
2018-05-18T07:10:25.919Z,18.80
2018-05-18T07:12:53.359Z,19.87
2018-05-18T07:15:20.872Z,17.77
2018-05-18T07:17:48.354Z,18.83
2018-05-18T07:20:16.678Z,18.27
2018-05-18T07:22:44.165Z,20.47
2018-05-18T07:25:11.682Z,18.40
2018-05-18T07:27:39.184Z,22.30
2018-05-18T07:30:06.731Z,18.10
2018-05-18T07:32:34.228Z,18.20
2018-05-18T07:35:02.519Z,17.70
2018-05-18T07:37:30.013Z,17.07
2018-05-18T07:39:57.520Z,17.83
2018-05-18T07:42:25.785Z,16.63
2018-05-18T07:44:54.066Z,19.33
2018-05-18T07:47:22.393Z,16.80
2018-05-18T07:49:49.961Z,15.43
2018-05-18T07:52:17.556Z,19.77
2018-05-18T07:54:45.850Z,15.43
2018-05-18T07:57:13.366Z,18.17
2018-05-18T07:59:40.911Z,15.87
2018-05-18T08:02:08.458Z,15.10
2018-05-18T08:04:36.013Z,16.27
2018-05-18T08:07:03.534Z,19.50
2018-05-18T08:09:31.817Z,15.90
2018-05-18T08:11:59.351Z,13.43
2018-05-18T08:14:26.892Z,16.37
2018-05-18T08:16:54.444Z,15.70
2018-05-18T08:19:21.942Z,16.17
2018-05-18T08:21:49.477Z,14.87
2018-05-18T08:24:16.965Z,16.90
2018-05-18T08:29:40.933Z,12.77
2018-05-18T08:32:08.421Z,15.40
2018-05-18T08:34:36.666Z,14.70
2018-05-18T08:37:04.183Z,15.13
2018-05-18T08:39:31.725Z,13.60
2018-05-18T08:41:59.243Z,13.83
2018-05-18T08:44:26.746Z,13.63
2018-05-18T08:46:54.998Z,14.23
2018-05-18T08:49:22.481Z,15.97
2018-05-18T08:51:50.741Z,12.47
2018-05-18T08:54:18.293Z,14.20
2018-05-18T08:56:45.787Z,15.17
2018-05-18T08:59:13.282Z,12.77
2018-05-18T09:01:40.770Z,14.17
2018-05-18T09:04:08.249Z,14.67
2018-05-18T09:06:36.504Z,14.77
2018-05-18T09:09:06.632Z,11.93
2018-05-18T09:11:34.178Z,15.27
2018-05-18T09:14:01.673Z,12.57
2018-05-18T09:16:32.227Z,15.23
2018-05-18T09:18:59.713Z,16.10
2018-05-18T09:21:27.210Z,16.00
2018-05-18T09:23:55.518Z,13.60
2018-05-18T09:26:23.090Z,15.47
2018-05-18T09:28:50.597Z,13.70
2018-05-18T09:31:18.854Z,18.87
2018-05-18T09:33:46.385Z,13.90
2018-05-18T09:36:13.882Z,15.47
2018-05-18T09:38:41.366Z,13.67
2018-05-18T09:41:08.854Z,17.60
2018-05-18T09:43:36.338Z,15.57
2018-05-18T09:46:03.830Z,20.30
2018-05-18T09:48:32.089Z,16.40
2018-05-18T09:50:59.576Z,18.67
2018-05-18T09:53:27.056Z,18.83
2018-05-18T09:55:54.581Z,15.60
2018-05-18T09:58:22.838Z,16.07
2018-05-18T10:00:50.445Z,15.27
2018-05-18T10:03:17.947Z,16.40
2018-05-18T10:05:45.449Z,14.43
2018-05-18T10:08:12.933Z,17.40
2018-05-18T10:10:40.457Z,15.67
2018-05-18T10:13:08.709Z,16.13
2018-05-18T10:15:36.211Z,16.93
2018-05-18T10:18:03.692Z,17.30
2018-05-18T10:20:31.199Z,16.20
2018-05-18T10:22:59.472Z,16.90
2018-05-18T10:25:27.729Z,17.77
2018-05-18T10:27:55.229Z,17.00
2018-05-18T10:30:30.356Z,18.40
2018-05-18T10:32:58.601Z,16.57
2018-05-18T10:35:26.102Z,14.83
2018-05-18T10:37:53.582Z,16.90
2018-05-18T10:40:21.080Z,17.73
2018-05-18T10:42:48.565Z,17.90
2018-05-18T10:45:16.896Z,15.80
2018-05-18T10:47:44.342Z,15.83
2018-05-18T10:50:11.885Z,16.80
2018-05-18T10:52:39.366Z,15.53
2018-05-18T10:55:06.869Z,15.03
2018-05-18T10:57:35.121Z,17.70
2018-05-18T11:00:02.710Z,16.57
2018-05-18T11:02:30.968Z,15.33
2018-05-18T11:04:58.459Z,15.60
2018-05-18T11:07:25.957Z,15.73
2018-05-18T11:09:53.456Z,14.27
2018-05-18T11:12:21.826Z,14.80
2018-05-18T11:14:50.073Z,13.73
2018-05-18T11:17:17.555Z,13.00
2018-05-18T11:19:45.057Z,13.90
2018-05-18T11:22:12.538Z,13.93
2018-05-18T11:24:40.041Z,15.37
2018-05-18T11:27:08.289Z,13.30
2018-05-18T11:29:35.802Z,13.17
2018-05-18T11:32:03.342Z,13.33
2018-05-18T11:34:31.591Z,14.63
2018-05-18T11:36:59.173Z,12.40
2018-05-18T11:39:27.450Z,11.63
2018-05-18T11:41:55.690Z,13.83
2018-05-18T11:44:23.929Z,14.83
2018-05-18T11:46:51.698Z,12.90
2018-05-18T11:49:19.211Z,13.43
2018-05-18T11:51:46.702Z,15.57
2018-05-18T11:54:14.190Z,13.10
2018-05-18T11:56:41.681Z,13.40
2018-05-18T11:59:09.174Z,14.43
2018-05-18T12:01:36.679Z,13.87
2018-05-18T12:04:04.173Z,14.53
2018-05-18T12:06:32.424Z,15.57
2018-05-18T12:08:59.905Z,14.23
2018-05-18T12:11:28.160Z,16.37
2018-05-18T12:13:55.644Z,15.10
2018-05-18T12:16:23.909Z,13.13
2018-05-18T12:18:51.388Z,14.07
2018-05-18T12:21:19.641Z,15.57
2018-05-18T12:23:47.126Z,14.00
2018-05-18T12:26:14.647Z,15.33
2018-05-18T12:28:42.136Z,16.57
2018-05-18T12:31:10.437Z,15.47
2018-05-18T12:33:37.991Z,16.57
2018-05-18T12:36:05.506Z,17.53
2018-05-18T12:38:33.217Z,17.97
2018-05-18T12:41:00.715Z,15.53
2018-05-18T12:43:28.201Z,14.47
2018-05-18T12:45:56.497Z,17.33
2018-05-18T12:48:23.986Z,16.37
2018-05-18T12:50:51.482Z,19.37
2018-05-18T12:53:18.975Z,17.93
2018-05-18T12:55:46.468Z,17.73
2018-05-18T12:58:13.957Z,18.03
2018-05-18T13:00:42.245Z,19.13
2018-05-18T13:03:10.541Z,16.73
2018-05-18T13:05:38.051Z,17.57
2018-05-18T13:08:05.639Z,15.90
2018-05-18T13:10:33.909Z,15.47
2018-05-18T13:13:01.406Z,17.40
2018-05-18T13:15:28.904Z,20.97
2018-05-18T13:17:56.386Z,20.87
2018-05-18T13:20:23.877Z,18.13
2018-05-18T13:22:51.381Z,16.53
2018-05-18T13:25:18.881Z,18.87
2018-05-18T13:27:47.182Z,14.97
2018-05-18T13:30:14.665Z,18.57
2018-05-18T13:32:42.198Z,16.93
